Terminal Aerodrome Forecast
Issued by NWS Billings, MT

Home | Current Version | Previous Version | Text Only | Print | Product List | Glossary Off
Versions: 1 2 3 4 5 6 7 8 9 10 11 12 13 14 15 16 17 18 19 20 21 22 23 24 25 26 27 28 29 30 31 32 33

000
FTUS45 KBYZ 300521
TAFMLS
TAF
KMLS 300521Z 3006/3106 14009KT P6SM SKC
     FM301600 VRB06KT P6SM SCT100
     FM301800 32014KT P6SM VCSH SCT070 BKN100
     FM310300 VRB06KT P6SM VCSH SCT010 BKN070=

USA.gov is the U.S. government's official web portal to all federal, state and local government web resources and services.